Roper, NC (27970)

11:08 AM EDT on August 22, 2014 (GMT -0400)
Northeastern Regional | Change Station
CLOSE
Current Station
Airport
Location: Edenton,
Elevation: 20 ft
Nearby Weather Stations

Elev 20 ft 36.03 °N, 76.57 °W | Updated 13 minutes ago

Clear
Clear
82 °F
Feels Like 88 °F
N
7
Wind Variable Wind from NNW

Today
High -- | Low -- °F
--% Chance of Precip.
Yesterday
High -- | Low -- °F
Precip. -- in
6:30 AM 7:47 PM
Waning Crescent, 8% visible
Pressure 29.99 in
Visibility 10.0 miles
Clouds Clear
Heat Index 88 °F
Dew Point 73 °F
Humidity 74%
Rainfall 0.12 in
Snow Depth Not available.
UV 8 out of 12
Pollen 8.40 out of 12
Air Quality Not available.
Flu Activity Not available.
METAR KEDE 221455Z AUTO 34006KT 10SM CLR 28/23 A2999 RMK AO2 T02800229

More Conditions Fewer Conditions

Pressure 29.99 in
Visibility 10.0 miles
Clouds Clear
Heat Index 88 °F
Dew Point 73 °F
Humidity 74%
Rainfall 0.12 in
Snow Depth Not available.
UV 8 out of 12
Pollen 8.40 out of 12
Air Quality Not available.
Flu Activity Not available.
METAR KEDE 221455Z AUTO 34006KT 10SM CLR 28/23 A2999 RMK AO2 T02800229

More Conditions Fewer Conditions

10-Day Weather Forecast

Almanac

Astronomy

Aug. 22, 2014 Rise Set
Actual Time 6:30 AM EDT 7:47 PM EDT
Civil Twilight 6:03 AM EDT 8:14 PM EDT
Nautical Twilight 5:31 AM EDT 8:45 PM EDT
Astronomical Twilight 4:58 AM EDT 9:19 PM EDT
Moon 3:53 AM EDT 5:52 PM EDT
Length of Visible Light 14h 10m
Length of Day
13h 16m
Tomorrow will be 2m 5s shorter.
Waning Crescent, 8% of the Moon is Illuminated
Today
Waning Crescent
Aug 25
New
Sep 2
First Quarter
Sep 8
Full
Sep 15
Last Quarter

Today's Extremes

State Highs State Lows

Community

WunderPhotos

Upload Photos

1,746,185 photos uploaded!

WunderBlogs® & News

Nearby

Snow Depth

Station Depth Elevation
No new snow has been reported.

Earthquake Activity

City Distance Mag. Time & Date
No recent earthquake activity has been reported nearby.
Minimum magnitude displayed is 2.5.

Coastal Water Temperatures

Place Temperature
Oregon Inlet Marina, NC 82.9 °F
Duck Pier, NC 79.0 °F
Hatteras, NC 82.0 °F
Money Point, VA 84.0 °F
Sewells Point, VA 80.1 °F
Chesapeake Bay Bridge Tunnel, VA 79.0 °F

Nearby Weather Stations